Time;durP1;ratioP1;P1;durP2;ratioP2;P2;SDS_P1;SDS_P2;PMS_P1;PMS_P2;Temp;Humidity;BMP_temperature;BMP_pressure;BME280_temperature;BME280_humidity;BME280_pressure;Samples;Min_cycle;Max_cycle;Signal;HPM_P1;HPM_P2
2023/11/23 00:00:39;;;;;;;;;;;;;;;;;;5046026;28;19924;-72
2023/11/23 00:03:05;;;;;;;;;;;;;;;;;;5052334;28;19925;-72
2023/11/23 00:05:31;;;;;;;;;;;;;;;;;;5062011;28;19932;-72
2023/11/23 00:07:58;;;;;;;;;;;;;;;;;;5049739;28;19925;-72
2023/11/23 00:10:24;;;;;;;;;;;;;;;;;;5068561;28;20269;-72
2023/11/23 00:12:50;;;;;;;;;;;;;;;;;;5067759;28;19920;-72
2023/11/23 00:15:16;;;;;;;;;;;;;;;;;;5068807;28;19932;-72
2023/11/23 00:17:42;;;;;;;;;;;;;;;;;;5045558;28;19924;-72
2023/11/23 00:20:10;;;;;;;;;;;;;;;;;;5070454;28;19955;-72
2023/11/23 00:22:36;;;;;;;;;;;;;;;;;;5037576;28;20396;-72
2023/11/23 00:25:09;;;;;;;;;;;;;;;;;;5051869;28;20544;-71
2023/11/23 00:27:35;;;;;;;;;;;;;;;;;;5053477;28;19920;-72
2023/11/23 00:30:01;;;;;;;;;;;;;;;;;;5053893;28;20343;-71
2023/11/23 00:32:27;;;;;;;;;;;;;;;;;;5054275;28;20270;-71
2023/11/23 00:34:53;;;;;;;;;;;;;;;;;;5053759;28;19934;-72
2023/11/23 00:37:21;;;;;;;;;;;;;;;;;;5071793;28;19927;-72
2023/11/23 00:39:47;;;;;;;;;;;;;;;;;;5051986;28;19924;-71
2023/11/23 00:42:13;;;;;;;;;;;;;;;;;;5045836;28;19935;-71
2023/11/23 00:44:39;;;;;;;;;;;;;;;;;;5042373;28;20336;-71
2023/11/23 00:47:06;;;;;;;;;;;;;;;;;;5067984;28;19924;-71
2023/11/23 00:49:33;;;;;;;;;;;;;;;;;;5051976;28;19920;-71
2023/11/23 00:52:00;;;;;;;;;;;;;;;;;;5052521;28;19927;-72
2023/11/23 00:54:27;;;;;;;;;;;;;;;;;;5052080;28;20401;-72
2023/11/23 00:56:53;;;;;;;;;;;;;;;;;;5068397;28;20430;-72
2023/11/23 00:59:19;;;;;;;;;;;;;;;;;;5051161;28;19928;-72
2023/11/23 01:01:45;;;;;;;;;;;;;;;;;;5052318;28;19924;-71
2023/11/23 01:04:11;;;;;;;;;;;;;;;;;;5051936;28;19982;-71
2023/11/23 01:06:37;;;;;;;;;;;;;;;;;;5050777;28;19921;-71
2023/11/23 01:09:03;;;;;;;;;;;;;;;;;;5068476;28;19932;-72
2023/11/23 01:11:29;;;;;;;;;;;;;;;;;;5046925;28;20281;-72
2023/11/23 01:13:55;;;;;;;;;;;;;;;;;;5043792;28;19921;-73
2023/11/23 01:16:21;;;;;;;;;;;;;;;;;;5044180;28;19932;-72
2023/11/23 01:18:46;;;;;;;;;;;;;;;;;;5051886;28;19939;-72
2023/11/23 01:21:12;;;;;;;;;;;;;;;;;;5074533;28;19944;-72
2023/11/23 01:23:38;;;;;;;;;;;;;;;;;;5069793;28;19932;-69
2023/11/23 01:26:04;;;;;;;;;;;;;;;;;;5070282;28;19927;-69
2023/11/23 01:28:30;;;;;;;;;;;;;;;;;;5045021;28;19956;-69
2023/11/23 01:30:56;;;;;;;;;;;;;;;;;;5071351;28;19971;-68
2023/11/23 01:33:22;;;;;;;;;;;;;;;;;;5071146;28;19927;-68
2023/11/23 01:35:48;;;;;;;;;;;;;;;;;;5059690;28;19929;-68
2023/11/23 01:38:14;;;;;;;;;;;;;;;;;;5055891;28;19947;-68
2023/11/23 01:40:40;;;;;;;;;;;;;;;;;;5050728;28;20319;-68
2023/11/23 01:43:07;;;;;;;;;;;;;;;;;;5056658;28;19925;-68
2023/11/23 01:45:33;;;;;;;;;;;;;;;;;;5048447;28;20289;-69
2023/11/23 01:47:59;;;;;;;;;;;;;;;;;;5052683;28;19921;-68
2023/11/23 01:50:25;;;;;;;;;;;;;;;;;;5053244;28;19928;-68
2023/11/23 01:52:51;;;;;;;;;;;;;;;;;;5051690;28;19932;-68
2023/11/23 01:55:17;;;;;;;;;;;;;;;;;;5053441;28;20443;-67
2023/11/23 01:57:43;;;;;;;;;;;;;;;;;;5051447;28;19921;-69
2023/11/23 02:00:09;;;;;;;;;;;;;;;;;;5044728;28;19925;-68
2023/11/23 02:02:35;;;;;;;;;;;;;;;;;;5032808;28;19960;-69
2023/11/23 02:05:03;;;;;;;;;;;;;;;;;;5054008;28;19982;-69
2023/11/23 02:07:29;;;;;;;;;;;;;;;;;;5040159;28;19921;-69
2023/11/23 02:09:55;;;;;;;;;;;;;;;;;;5054891;28;20324;-69
2023/11/23 02:12:21;;;;;;;;;;;;;;;;;;5049391;28;19929;-68
2023/11/23 02:14:47;;;;;;;;;;;;;;;;;;5044704;28;19928;-69
2023/11/23 02:17:13;;;;;;;;;;;;;;;;;;5054539;28;19927;-69
2023/11/23 02:19:38;;;;;;;;;;;;;;;;;;5055464;28;19928;-69
2023/11/23 02:22:04;;;;;;;;;;;;;;;;;;5055763;28;20484;-69
2023/11/23 02:24:30;;;;;;;;;;;;;;;;;;5052603;28;20050;-68
2023/11/23 02:26:57;;;;;;;;;;;;;;;;;;5033656;28;19973;-68
2023/11/23 02:29:23;;;;;;;;;;;;;;;;;;5042804;28;20616;-68
2023/11/23 02:31:49;;;;;;;;;;;;;;;;;;5054542;28;19950;-68
2023/11/23 02:34:15;;;;;;;;;;;;;;;;;;5042544;28;19971;-69
2023/11/23 02:36:40;;;;;;;;;;;;;;;;;;5058203;28;19924;-69
2023/11/23 02:39:06;;;;;;;;;;;;;;;;;;5062708;28;19920;-68
2023/11/23 02:41:32;;;;;;;;;;;;;;;;;;5050323;28;19931;-69
2023/11/23 02:43:58;;;;;;;;;;;;;;;;;;5053988;28;21218;-69
2023/11/23 02:46:24;;;;;;;;;;;;;;;;;;5047112;28;19927;-68
2023/11/23 02:48:50;;;;;;;;;;;;;;;;;;5050671;28;19921;-68
2023/11/23 02:51:17;;;;;;;;;;;;;;;;;;5054795;28;20349;-69
2023/11/23 02:53:43;;;;;;;;;;;;;;;;;;5059198;28;19921;-69
2023/11/23 02:56:10;;;;;;;;;;;;;;;;;;5055552;28;19935;-69
2023/11/23 02:58:36;;;;;;;;;;;;;;;;;;5052318;28;19921;-69
2023/11/23 03:01:02;;;;;;;;;;;;;;;;;;5049266;28;19924;-68
2023/11/23 03:03:29;;;;;;;;;;;;;;;;;;5054200;28;19930;-68
2023/11/23 03:05:54;;;;;;;;;;;;;;;;;;5054169;28;19920;-69
2023/11/23 03:08:20;;;;;;;;;;;;;;;;;;5057844;28;19921;-68
2023/11/23 03:10:46;;;;;;;;;;;;;;;;;;5052557;28;19925;-69
2023/11/23 03:13:12;;;;;;;;;;;;;;;;;;5047882;28;19936;-68
2023/11/23 03:15:38;;;;;;;;;;;;;;;;;;5050401;28;19929;-69
2023/11/23 03:18:04;;;;;;;;;;;;;;;;;;5050876;28;20611;-69
2023/11/23 03:20:31;;;;;;;;;;;;;;;;;;5046827;28;19956;-69
2023/11/23 03:22:56;;;;;;;;;;;;;;;;;;5050600;28;19924;-68
2023/11/23 03:25:22;;;;;;;;;;;;;;;;;;5047809;28;19931;-68
2023/11/23 03:27:48;;;;;;;;;;;;;;;;;;5044793;28;20370;-68
2023/11/23 03:30:15;;;;;;;;;;;;;;;;;;5048347;28;19921;-68
2023/11/23 03:32:41;;;;;;;;;;;;;;;;;;5053434;28;20358;-68
2023/11/23 03:35:07;;;;;;;;;;;;;;;;;;5043496;28;19961;-67
2023/11/23 03:37:33;;;;;;;;;;;;;;;;;;5054488;28;19925;-68
2023/11/23 03:39:59;;;;;;;;;;;;;;;;;;5045304;28;19924;-69
2023/11/23 03:42:25;;;;;;;;;;;;;;;;;;5047423;28;20366;-68
2023/11/23 03:44:51;;;;;;;;;;;;;;;;;;5052375;28;19935;-69
2023/11/23 03:47:17;;;;;;;;;;;;;;;;;;5043215;28;19921;-68
2023/11/23 03:49:42;;;;;;;;;;;;;;;;;;5048018;28;19921;-68
2023/11/23 03:52:08;;;;;;;;;;;;;;;;;;5053487;28;19970;-69
2023/11/23 03:54:34;;;;;;;;;;;;;;;;;;5050561;28;19948;-67
2023/11/23 03:57:00;;;;;;;;;;;;;;;;;;5049790;28;19947;-67
2023/11/23 03:59:26;;;;;;;;;;;;;;;;;;5045019;28;20015;-68
2023/11/23 04:01:52;;;;;;;;;;;;;;;;;;5051918;28;20349;-68
2023/11/23 04:04:19;;;;;;;;;;;;;;;;;;5045657;28;20262;-68
2023/11/23 04:06:45;;;;;;;;;;;;;;;;;;5047859;28;19951;-68
2023/11/23 04:09:11;;;;;;;;;;;;;;;;;;5042896;28;19929;-68
2023/11/23 04:11:37;;;;;;;;;;;;;;;;;;5046621;28;19929;-68
2023/11/23 04:14:03;;;;;;;;;;;;;;;;;;5045040;28;19928;-69
2023/11/23 04:16:29;;;;;;;;;;;;;;;;;;5048357;28;19960;-68
2023/11/23 04:18:55;;;;;;;;;;;;;;;;;;5045244;28;19970;-68
2023/11/23 04:21:21;;;;;;;;;;;;;;;;;;5046059;28;19925;-67
2023/11/23 04:23:47;;;;;;;;;;;;;;;;;;5043617;28;20665;-68
2023/11/23 04:26:13;;;;;;;;;;;;;;;;;;5048099;28;19925;-67
2023/11/23 04:28:38;;;;;;;;;;;;;;;;;;5039707;28;19929;-67
2023/11/23 04:31:05;;;;;;;;;;;;;;;;;;5036416;28;19928;-67
2023/11/23 04:33:31;;;;;;;;;;;;;;;;;;5039027;28;20370;-68
2023/11/23 04:35:57;;;;;;;;;;;;;;;;;;5051974;28;19929;-68
2023/11/23 04:38:24;;;;;;;;;;;;;;;;;;5050808;28;19927;-68
2023/11/23 04:40:50;;;;;;;;;;;;;;;;;;5028271;28;19925;-68
2023/11/23 04:43:16;;;;;;;;;;;;;;;;;;5031143;28;20370;-67
2023/11/23 04:45:42;;;;;;;;;;;;;;;;;;5021566;28;19921;-67
2023/11/23 04:48:08;;;;;;;;;;;;;;;;;;5030291;28;19996;-68
2023/11/23 04:50:34;;;;;;;;;;;;;;;;;;5029663;28;19925;-67
2023/11/23 04:53:00;;;;;;;;;;;;;;;;;;5020242;28;19921;-68
2023/11/23 04:55:28;;;;;;;;;;;;;;;;;;5024811;28;19948;-68
2023/11/23 04:57:54;;;;;;;;;;;;;;;;;;5030898;28;19921;-69
2023/11/23 05:00:24;;;;;;;;;;;;;;;;;;5020521;28;20342;-68
2023/11/23 05:02:50;;;;;;;;;;;;;;;;;;5027635;28;19921;-68
2023/11/23 05:05:16;;;;;;;;;;;;;;;;;;5029755;28;20575;-68
2023/11/23 05:07:42;;;;;;;;;;;;;;;;;;5029779;28;20287;-68
2023/11/23 05:10:08;;;;;;;;;;;;;;;;;;5013896;28;19967;-68
2023/11/23 05:12:34;;;;;;;;;;;;;;;;;;5029151;28;19921;-68
2023/11/23 05:15:00;;;;;;;;;;;;;;;;;;5024112;28;20055;-68
2023/11/23 05:17:25;;;;;;;;;;;;;;;;;;5025974;28;19931;-68
2023/11/23 05:19:51;;;;;;;;;;;;;;;;;;5028787;28;19925;-68
2023/11/23 05:22:17;;;;;;;;;;;;;;;;;;5018674;28;20418;-68
2023/11/23 05:24:43;;;;;;;;;;;;;;;;;;5006559;28;19921;-68
2023/11/23 05:27:09;;;;;;;;;;;;;;;;;;5030260;28;19932;-68
2023/11/23 05:29:36;;;;;;;;;;;;;;;;;;5028256;28;19983;-68
2023/11/23 05:32:02;;;;;;;;;;;;;;;;;;5023080;28;19925;-68
2023/11/23 05:34:28;;;;;;;;;;;;;;;;;;5028299;28;19929;-68
2023/11/23 05:36:53;;;;;;;;;;;;;;;;;;5031054;28;20021;-68
2023/11/23 05:39:19;;;;;;;;;;;;;;;;;;5016932;28;19957;-68
2023/11/23 05:41:46;;;;;;;;;;;;;;;;;;5043787;28;19921;-66
2023/11/23 05:44:12;;;;;;;;;;;;;;;;;;5046522;28;20023;-68
2023/11/23 05:46:38;;;;;;;;;;;;;;;;;;5044892;28;20291;-68
2023/11/23 05:49:05;;;;;;;;;;;;;;;;;;5048292;28;19928;-68
2023/11/23 05:51:31;;;;;;;;;;;;;;;;;;5049275;28;19929;-68
2023/11/23 05:53:57;;;;;;;;;;;;;;;;;;5047489;28;19978;-68
2023/11/23 05:56:23;;;;;;;;;;;;;;;;;;5060446;22;19933;-68
2023/11/23 05:58:48;;;;;;;;;;;;;;;;;;5031412;28;20453;-68
2023/11/23 06:01:14;;;;;;;;;;;;;;;;;;5025526;28;19925;-68
2023/11/23 06:03:40;;;;;;;;;;;;;;;;;;5021214;28;19921;-68
2023/11/23 06:06:06;;;;;;;;;;;;;;;;;;5031630;28;19924;-68
2023/11/23 06:08:34;;;;;;;;;;;;;;;;;;5033089;28;19925;-68
2023/11/23 06:11:00;;;;;;;;;;;;;;;;;;5027143;28;19971;-69
2023/11/23 06:13:26;;;;;;;;;;;;;;;;;;5034522;28;19924;-68
2023/11/23 06:15:52;;;;;;;;;;;;;;;;;;5034019;28;19982;-69
2023/11/23 06:18:18;;;;;;;;;;;;;;;;;;5027703;28;19921;-68
2023/11/23 06:20:43;;;;;;;;;;;;;;;;;;5034730;28;20521;-69
2023/11/23 06:23:10;;;;;;;;;;;;;;;;;;5035105;28;20011;-67
2023/11/23 06:25:36;;;;;;;;;;;;;;;;;;5032799;28;20294;-68
2023/11/23 06:28:02;;;;;;;;;;;;;;;;;;5032155;28;19936;-67
2023/11/23 06:30:28;;;;;;;;;;;;;;;;;;5037195;28;19925;-68
2023/11/23 06:32:54;;;;;;;;;;;;;;;;;;5031849;28;19975;-69
2023/11/23 06:35:20;;;;;;;;;;;;;;;;;;5036764;28;19972;-68
2023/11/23 06:37:47;;;;;;;;;;;;;;;;;;5038823;28;19931;-68
2023/11/23 06:40:14;;;;;;;;;;;;;;;;;;5035306;28;19920;-69
2023/11/23 06:42:40;;;;;;;;;;;;;;;;;;5037804;28;19924;-69
2023/11/23 06:45:06;;;;;;;;;;;;;;;;;;5035957;28;20428;-69
2023/11/23 06:47:31;;;;;;;;;;;;;;;;;;5037769;28;19929;-68
2023/11/23 06:49:57;;;;;;;;;;;;;;;;;;5028686;28;19961;-69
2023/11/23 06:52:23;;;;;;;;;;;;;;;;;;5032407;28;20362;-69
2023/11/23 06:54:49;;;;;;;;;;;;;;;;;;5039463;28;20059;-69
2023/11/23 06:57:15;;;;;;;;;;;;;;;;;;5073447;28;19924;-69
2023/11/23 06:59:41;;;;;;;;;;;;;;;;;;5072919;28;19934;-69
2023/11/23 07:02:07;;;;;;;;;;;;;;;;;;5069955;28;19924;-69
2023/11/23 07:04:33;;;;;;;;;;;;;;;;;;5072564;28;19920;-69
2023/11/23 07:06:59;;;;;;;;;;;;;;;;;;5070020;28;20358;-69
2023/11/23 07:09:25;;;;;;;;;;;;;;;;;;5044143;28;20346;-70
2023/11/23 07:11:54;;;;;;;;;;;;;;;;;;5052330;28;19924;-68
2023/11/23 07:14:21;;;;;;;;;;;;;;;;;;5071245;28;19925;-68
2023/11/23 07:16:49;;;;;;;;;;;;;;;;;;5045626;28;20007;-68
2023/11/23 07:19:15;;;;;;;;;;;;;;;;;;5072616;28;19925;-69
2023/11/23 07:21:41;;;;;;;;;;;;;;;;;;5036022;28;20354;-69
2023/11/23 07:24:06;;;;;;;;;;;;;;;;;;5071698;28;20002;-68
2023/11/23 07:26:33;;;;;;;;;;;;;;;;;;5067773;28;19928;-69
2023/11/23 07:28:59;;;;;;;;;;;;;;;;;;5045036;28;19928;-68
2023/11/23 07:31:25;;;;;;;;;;;;;;;;;;5066030;28;20381;-68
2023/11/23 07:33:51;;;;;;;;;;;;;;;;;;5072547;28;19932;-68
2023/11/23 07:36:18;;;;;;;;;;;;;;;;;;5071793;28;19931;-68
2023/11/23 07:38:44;;;;;;;;;;;;;;;;;;5070948;28;20038;-68
2023/11/23 07:41:11;;;;;;;;;;;;;;;;;;5053548;28;19931;-68
2023/11/23 07:43:37;;;;;;;;;;;;;;;;;;5069698;28;19920;-68
2023/11/23 07:46:03;;;;;;;;;;;;;;;;;;5071935;28;20434;-68
2023/11/23 07:48:29;;;;;;;;;;;;;;;;;;5049899;28;19924;-68
2023/11/23 07:50:55;;;;;;;;;;;;;;;;;;5072217;28;19921;-68
2023/11/23 07:53:21;;;;;;;;;;;;;;;;;;5070724;28;20491;-69
2023/11/23 07:55:47;;;;;;;;;;;;;;;;;;5070967;28;19929;-67
2023/11/23 07:58:13;;;;;;;;;;;;;;;;;;5051643;28;19924;-68
2023/11/23 08:00:40;;;;;;;;;;;;;;;;;;5070615;28;19920;-68
2023/11/23 08:03:06;;;;;;;;;;;;;;;;;;5066207;28;19924;-67
2023/11/23 08:05:32;;;;;;;;;;;;;;;;;;5068851;28;20298;-68
2023/11/23 08:07:58;;;;;;;;;;;;;;;;;;5053445;28;19928;-67
2023/11/23 08:10:24;;;;;;;;;;;;;;;;;;5071899;28;19982;-67
2023/11/23 08:12:49;;;;;;;;;;;;;;;;;;5072531;28;20007;-67
2023/11/23 08:15:15;;;;;;;;;;;;;;;;;;5072517;28;19920;-68
2023/11/23 08:17:41;;;;;;;;;;;;;;;;;;5065474;28;19947;-68
2023/11/23 08:20:08;;;;;;;;;;;;;;;;;;5060764;28;19955;-67
2023/11/23 08:22:34;;;;;;;;;;;;;;;;;;5038361;28;19921;-68
2023/11/23 08:25:00;;;;;;;;;;;;;;;;;;5070116;28;20404;-69
2023/11/23 08:27:26;;;;;;;;;;;;;;;;;;5069742;28;19924;-68
2023/11/23 08:29:52;;;;;;;;;;;;;;;;;;5070539;28;19924;-68
2023/11/23 08:32:18;;;;;;;;;;;;;;;;;;5048863;28;19929;-69
2023/11/23 08:34:44;;;;;;;;;;;;;;;;;;5060482;28;20025;-69
2023/11/23 08:37:10;;;;;;;;;;;;;;;;;;5044122;28;19990;-69
2023/11/23 08:39:37;;;;;;;;;;;;;;;;;;5041761;28;20427;-69
2023/11/23 08:42:03;;;;;;;;;;;;;;;;;;5068494;28;19973;-68
2023/11/23 08:44:29;;;;;;;;;;;;;;;;;;5061392;28;20007;-70
2023/11/23 08:46:57;;;;;;;;;;;;;;;;;;5053884;28;20054;-70
2023/11/23 08:49:25;;;;;;;;;;;;;;;;;;5052695;28;19960;-70
2023/11/23 08:51:51;;;;;;;;;;;;;;;;;;5054026;28;19927;-69
2023/11/23 08:54:17;;;;;;;;;;;;;;;;;;5047021;28;20439;-70
2023/11/23 08:56:46;;;;;;;;;;;;;;;;;;5049348;28;19928;-69
2023/11/23 08:59:12;;;;;;;;;;;;;;;;;;5052310;28;19928;-71
2023/11/23 09:01:38;;;;;;;;;;;;;;;;;;5052006;28;19931;-71
2023/11/23 09:04:04;;;;;;;;;;;;;;;;;;5068555;28;19920;-70
2023/11/23 09:06:30;;;;;;;;;;;;;;;;;;5053519;28;19950;-71
2023/11/23 09:08:56;;;;;;;;;;;;;;;;;;5048303;28;19920;-70
2023/11/23 09:11:22;;;;;;;;;;;;;;;;;;5051576;28;23310;-72
2023/11/23 09:13:48;;;;;;;;;;;;;;;;;;5054036;28;19928;-71
2023/11/23 09:16:14;;;;;;;;;;;;;;;;;;5034969;28;19924;-71
2023/11/23 09:18:40;;;;;;;;;;;;;;;;;;5065064;28;20019;-71
2023/11/23 09:21:06;;;;;;;;;;;;;;;;;;5067976;28;19920;-71
2023/11/23 09:23:32;;;;;;;;;;;;;;;;;;5035911;28;19967;-71
2023/11/23 09:25:59;;;;;;;;;;;;;;;;;;5027867;28;19921;-72
2023/11/23 09:28:25;;;;;;;;;;;;;;;;;;5035058;28;20293;-72
2023/11/23 09:30:51;;;;;;;;;;;;;;;;;;5050642;28;19931;-71
2023/11/23 09:33:17;;;;;;;;;;;;;;;;;;5067881;28;19959;-72
2023/11/23 09:35:45;;;;;;;;;;;;;;;;;;5067544;28;21371;-71
2023/11/23 09:38:11;;;;;;;;;;;;;;;;;;5055133;28;20007;-70
2023/11/23 09:40:37;;;;;;;;;;;;;;;;;;5051828;28;19974;-70
2023/11/23 09:43:02;;;;;;;;;;;;;;;;;;5055252;28;19928;-70
2023/11/23 09:45:28;;;;;;;;;;;;;;;;;;5055201;28;19921;-70
2023/11/23 09:47:54;;;;;;;;;;;;;;;;;;5040885;28;20368;-71
2023/11/23 09:50:20;;;;;;;;;;;;;;;;;;5073006;28;20011;-71
2023/11/23 09:52:46;;;;;;;;;;;;;;;;;;5040727;28;19924;-72
2023/11/23 09:55:16;;;;;;;;;;;;;;;;;;5055658;28;19928;-71
2023/11/23 09:57:42;;;;;;;;;;;;;;;;;;5042241;28;19928;-71
2023/11/23 10:00:14;;;;;;;;;;;;;;;;;;5073210;28;19928;-71
2023/11/23 10:02:40;;;;;;;;;;;;;;;;;;5068088;28;19928;-69
2023/11/23 10:05:07;;;;;;;;;;;;;;;;;;5052278;28;19939;-70
2023/11/23 10:07:33;;;;;;;;;;;;;;;;;;5054880;28;20243;-70
2023/11/23 10:10:01;;;;;;;;;;;;;;;;;;5050187;28;19928;-71
2023/11/23 10:12:27;;;;;;;;;;;;;;;;;;5051729;28;19938;-70
2023/11/23 10:14:53;;;;;;;;;;;;;;;;;;5057253;28;19928;-69
2023/11/23 10:17:19;;;;;;;;;;;;;;;;;;5073092;28;19927;-70
2023/11/23 10:19:45;;;;;;;;;;;;;;;;;;5045571;28;19936;-71
2023/11/23 10:22:11;;;;;;;;;;;;;;;;;;5067305;28;20282;-71
2023/11/23 10:24:37;;;;;;;;;;;;;;;;;;5039350;28;19928;-71
2023/11/23 10:27:03;;;;;;;;;;;;;;;;;;5051342;28;19921;-71
2023/11/23 10:29:29;;;;;;;;;;;;;;;;;;5034890;28;19948;-71
2023/11/23 10:31:55;;;;;;;;;;;;;;;;;;5048525;28;19929;-71
2023/11/23 10:34:21;;;;;;;;;;;;;;;;;;5052168;28;19932;-69
2023/11/23 10:36:48;;;;;;;;;;;;;;;;;;5049255;28;19951;-70
2023/11/23 10:39:14;;;;;;;;;;;;;;;;;;5044966;28;19929;-71
2023/11/23 10:41:40;;;;;;;;;;;;;;;;;;5043967;28;19928;-71
2023/11/23 10:44:06;;;;;;;;;;;;;;;;;;5063606;28;19920;-70
2023/11/23 10:46:32;;;;;;;;;;;;;;;;;;5061475;28;19994;-70
2023/11/23 10:48:58;;;;;;;;;;;;;;;;;;5048676;28;20317;-72
2023/11/23 10:51:27;;;;;;;;;;;;;;;;;;5065605;28;19963;-71
2023/11/23 10:53:52;;;;;;;;;;;;;;;;;;5050874;28;20340;-72
2023/11/23 10:56:18;;;;;;;;;;;;;;;;;;5050494;28;19932;-71
2023/11/23 10:58:44;;;;;;;;;;;;;;;;;;5051508;28;19924;-71
2023/11/23 11:01:10;;;;;;;;;;;;;;;;;;5064456;28;19921;-71
2023/11/23 11:03:36;;;;;;;;;;;;;;;;;;5037097;28;19921;-71
2023/11/23 11:06:04;;;;;;;;;;;;;;;;;;5073167;28;20369;-71
2023/11/23 11:08:30;;;;;;;;;;;;;;;;;;5050656;28;19920;-71
2023/11/23 11:10:57;;;;;;;;;;;;;;;;;;5047286;28;20008;-71
2023/11/23 11:13:23;;;;;;;;;;;;;;;;;;5067411;28;20380;-71
2023/11/23 11:15:50;;;;;;;;;;;;;;;;;;5052091;28;20031;-72
2023/11/23 11:18:16;;;;;;;;;;;;;;;;;;5054140;28;19925;-72
2023/11/23 11:20:42;;;;;;;;;;;;;;;;;;5072064;28;19981;-71
2023/11/23 11:23:08;;;;;;;;;;;;;;;;;;5069658;28;19924;-70
2023/11/23 11:25:34;;;;;;;;;;;;;;;;;;5050935;28;19928;-70
2023/11/23 11:27:59;;;;;;;;;;;;;;;;;;5069533;28;19952;-70
2023/11/23 11:30:25;;;;;;;;;;;;;;;;;;5047772;28;19932;-71
2023/11/23 11:32:52;;;;;;;;;;;;;;;;;;5052106;28;19928;-70
2023/11/23 11:35:19;;;;;;;;;;;;;;;;;;5049650;28;19929;-72
2023/11/23 11:37:45;;;;;;;;;;;;;;;;;;5041358;28;19947;-72
2023/11/23 11:40:11;;;;;;;;;;;;;;;;;;5067034;28;20726;-72
2023/11/23 11:42:39;;;;;;;;;;;;;;;;;;5049164;28;19935;-71
2023/11/23 11:45:06;;;;;;;;;;;;;;;;;;5041330;28;20608;-71
2023/11/23 11:47:33;;;;;;;;;;;;;;;;;;5045515;28;20032;-71
2023/11/23 11:49:59;;;;;;;;;;;;;;;;;;5034110;28;20027;-71
2023/11/23 11:52:26;;;;;;;;;;;;;;;;;;5045248;28;20007;-72
2023/11/23 11:54:52;;;;;;;;;;;;;;;;;;5041349;28;19936;-71
2023/11/23 11:57:18;;;;;;;;;;;;;;;;;;5042605;28;19967;-70
2023/11/23 11:59:44;;;;;;;;;;;;;;;;;;5047584;28;21788;-71
2023/11/23 12:02:10;;;;;;;;;;;;;;;;;;5045818;28;19927;-72
2023/11/23 12:04:35;;;;;;;;;;;;;;;;;;5045241;28;20320;-71
2023/11/23 12:07:01;;;;;;;;;;;;;;;;;;5070876;28;19932;-71
2023/11/23 12:09:28;;;;;;;;;;;;;;;;;;5044025;28;20485;-71
2023/11/23 12:11:54;;;;;;;;;;;;;;;;;;5064298;28;19921;-71
2023/11/23 12:14:20;;;;;;;;;;;;;;;;;;5033328;28;19959;-72
2023/11/23 12:16:46;;;;;;;;;;;;;;;;;;5071580;28;19924;-72
2023/11/23 12:19:12;;;;;;;;;;;;;;;;;;5053841;28;19924;-71
2023/11/23 12:21:38;;;;;;;;;;;;;;;;;;5033927;28;19936;-72
2023/11/23 12:24:04;;;;;;;;;;;;;;;;;;5053656;28;19932;-71
2023/11/23 12:26:30;;;;;;;;;;;;;;;;;;5053485;28;19928;-72
2023/11/23 12:28:56;;;;;;;;;;;;;;;;;;5053641;28;19924;-70
2023/11/23 12:31:23;;;;;;;;;;;;;;;;;;5068223;28;19935;-71
2023/11/23 12:33:49;;;;;;;;;;;;;;;;;;5037235;28;19974;-71
2023/11/23 12:36:16;;;;;;;;;;;;;;;;;;5053869;28;19920;-71
2023/11/23 12:38:41;;;;;;;;;;;;;;;;;;5046540;28;19924;-71
2023/11/23 12:41:07;;;;;;;;;;;;;;;;;;5047849;28;19920;-71
2023/11/23 12:43:34;;;;;;;;;;;;;;;;;;5049047;28;19920;-70
2023/11/23 12:45:59;;;;;;;;;;;;;;;;;;5052656;28;19939;-71
2023/11/23 12:48:25;;;;;;;;;;;;;;;;;;5051966;28;19920;-71
2023/11/23 12:50:51;;;;;;;;;;;;;;;;;;5074621;28;19924;-71
2023/11/23 12:53:18;;;;;;;;;;;;;;;;;;5048117;28;20094;-71
2023/11/23 12:55:44;;;;;;;;;;;;;;;;;;5051642;28;19928;-71
2023/11/23 12:58:10;;;;;;;;;;;;;;;;;;5048621;28;19928;-72
2023/11/23 13:00:36;;;;;;;;;;;;;;;;;;5051615;28;19924;-71
2023/11/23 13:03:02;;;;;;;;;;;;;;;;;;5052727;28;19982;-71
2023/11/23 13:05:29;;;;;;;;;;;;;;;;;;5052841;28;19926;-69
2023/11/23 13:07:55;;;;;;;;;;;;;;;;;;5064905;28;20385;-71
2023/11/23 13:10:22;;;;;;;;;;;;;;;;;;5066218;28;19973;-71
2023/11/23 13:12:54;;;;;;;;;;;;;;;;;;5052697;28;19973;-72
2023/11/23 13:15:20;;;;;;;;;;;;;;;;;;5049535;28;19928;-72
2023/11/23 13:17:47;;;;;;;;;;;;;;;;;;5058366;28;20410;-71
2023/11/23 13:20:14;;;;;;;;;;;;;;;;;;5066286;28;20007;-71
2023/11/23 13:22:41;;;;;;;;;;;;;;;;;;5048693;28;19971;-71
2023/11/23 13:25:11;;;;;;;;;;;;;;;;;;5065295;28;19929;-71
2023/11/23 13:27:37;;;;;;;;;;;;;;;;;;5044211;28;20014;-71
2023/11/23 13:30:03;;;;;;;;;;;;;;;;;;5040503;28;19958;-71
2023/11/23 13:32:30;;;;;;;;;;;;;;;;;;5045971;28;20015;-71
2023/11/23 13:34:58;;;;;;;;;;;;;;;;;;5046805;28;19928;-71
2023/11/23 13:37:23;;;;;;;;;;;;;;;;;;5046690;28;19924;-71
2023/11/23 13:39:49;;;;;;;;;;;;;;;;;;5030457;28;19924;-70
2023/11/23 13:42:17;;;;;;;;;;;;;;;;;;5041808;28;20409;-71
2023/11/23 13:44:43;;;;;;;;;;;;;;;;;;5044308;28;19930;-71
2023/11/23 13:47:12;;;;;;;;;;;;;;;;;;5065182;28;19921;-71
2023/11/23 13:49:38;;;;;;;;;;;;;;;;;;5047604;28;19929;-72
2023/11/23 13:52:04;;;;;;;;;;;;;;;;;;5038282;28;19947;-70
2023/11/23 13:54:30;;;;;;;;;;;;;;;;;;5025736;28;20017;-71
2023/11/23 13:56:56;;;;;;;;;;;;;;;;;;5041293;28;19931;-71
2023/11/23 13:59:22;;;;;;;;;;;;;;;;;;5060311;28;19951;-72
2023/11/23 14:01:50;;;;;;;;;;;;;;;;;;5040503;28;19982;-71
2023/11/23 14:04:16;;;;;;;;;;;;;;;;;;5041291;28;20354;-71
2023/11/23 14:06:42;;;;;;;;;;;;;;;;;;5040709;28;19921;-71
2023/11/23 14:09:18;;;;;;;;;;;;;;;;;;5046148;28;19920;-71
2023/11/23 14:11:44;;;;;;;;;;;;;;;;;;5022340;28;20325;-71
2023/11/23 14:14:10;;;;;;;;;;;;;;;;;;5058185;28;20243;-70
2023/11/23 14:16:36;;;;;;;;;;;;;;;;;;5030490;28;19932;-71
2023/11/23 14:19:05;;;;;;;;;;;;;;;;;;5042988;28;19933;-71
2023/11/23 14:21:31;;;;;;;;;;;;;;;;;;5066517;28;20010;-70
2023/11/23 14:23:58;;;;;;;;;;;;;;;;;;5051511;28;20316;-71
2023/11/23 14:26:24;;;;;;;;;;;;;;;;;;5051290;28;20565;-71
2023/11/23 14:28:50;;;;;;;;;;;;;;;;;;5072884;28;20007;-70
2023/11/23 14:31:18;;;;;;;;;;;;;;;;;;5051581;28;19920;-71
2023/11/23 14:33:44;;;;;;;;;;;;;;;;;;5052107;28;19920;-71
2023/11/23 14:36:12;;;;;;;;;;;;;;;;;;5052398;28;19991;-71
2023/11/23 14:38:38;;;;;;;;;;;;;;;;;;5054517;28;19981;-70
2023/11/23 14:41:04;;;;;;;;;;;;;;;;;;5055872;28;20285;-70
2023/11/23 14:43:30;;;;;;;;;;;;;;;;;;5054952;28;19928;-70
2023/11/23 14:45:58;;;;;;;;;;;;;;;;;;5053161;28;19920;-71
2023/11/23 14:48:25;;;;;;;;;;;;;;;;;;5053790;28;19920;-70
2023/11/23 14:50:51;;;;;;;;;;;;;;;;;;5057031;28;19985;-70
2023/11/23 14:53:17;;;;;;;;;;;;;;;;;;5055095;28;19920;-71
2023/11/23 14:55:43;;;;;;;;;;;;;;;;;;5050928;28;19936;-71
2023/11/23 14:58:09;;;;;;;;;;;;;;;;;;5033578;28;19932;-71
2023/11/23 15:00:38;;;;;;;;;;;;;;;;;;5050179;28;19944;-70
2023/11/23 15:03:05;;;;;;;;;;;;;;;;;;5058059;28;19921;-69
2023/11/23 15:05:31;;;;;;;;;;;;;;;;;;5048285;28;20136;-70
2023/11/23 15:07:57;;;;;;;;;;;;;;;;;;5035767;28;20341;-70
2023/11/23 15:10:24;;;;;;;;;;;;;;;;;;5065768;28;20003;-71
2023/11/23 15:12:53;;;;;;;;;;;;;;;;;;5070606;28;19973;-71
2023/11/23 15:15:19;;;;;;;;;;;;;;;;;;5050771;28;19925;-71
2023/11/23 15:17:46;;;;;;;;;;;;;;;;;;5053121;28;19932;-71
2023/11/23 15:20:12;;;;;;;;;;;;;;;;;;5050423;28;19925;-71
2023/11/23 15:22:38;;;;;;;;;;;;;;;;;;5051851;28;19978;-70
2023/11/23 15:25:04;;;;;;;;;;;;;;;;;;5048005;28;20352;-72
2023/11/23 15:27:31;;;;;;;;;;;;;;;;;;5051115;28;19943;-71
2023/11/23 15:29:57;;;;;;;;;;;;;;;;;;5051120;28;20302;-71
2023/11/23 15:32:23;;;;;;;;;;;;;;;;;;5043932;28;19921;-71
2023/11/23 15:34:49;;;;;;;;;;;;;;;;;;5032509;28;19925;-71
2023/11/23 15:37:16;;;;;;;;;;;;;;;;;;5050503;28;19929;-70
2023/11/23 15:39:42;;;;;;;;;;;;;;;;;;5065951;28;19932;-70
2023/11/23 15:42:10;;;;;;;;;;;;;;;;;;5051278;28;19921;-71
2023/11/23 15:44:37;;;;;;;;;;;;;;;;;;5048740;28;19928;-71
2023/11/23 15:47:03;;;;;;;;;;;;;;;;;;5050642;28;19967;-71
2023/11/23 15:49:29;;;;;;;;;;;;;;;;;;5053380;28;19927;-71
2023/11/23 15:51:55;;;;;;;;;;;;;;;;;;5065804;28;20367;-71
2023/11/23 15:54:21;;;;;;;;;;;;;;;;;;5051642;28;19925;-71
2023/11/23 15:56:47;;;;;;;;;;;;;;;;;;5051406;28;20370;-71
2023/11/23 15:59:13;;;;;;;;;;;;;;;;;;5052591;28;19920;-71
2023/11/23 16:01:39;;;;;;;;;;;;;;;;;;5048073;28;19955;-71
2023/11/23 16:04:06;;;;;;;;;;;;;;;;;;5066979;28;20271;-71
2023/11/23 16:06:33;;;;;;;;;;;;;;;;;;5051704;28;19974;-71
2023/11/23 16:09:00;;;;;;;;;;;;;;;;;;5052424;28;20387;-71
2023/11/23 16:11:26;;;;;;;;;;;;;;;;;;5049160;28;19959;-71
2023/11/23 16:13:52;;;;;;;;;;;;;;;;;;5064963;28;20032;-71
2023/11/23 16:16:18;;;;;;;;;;;;;;;;;;5053964;28;19925;-71
2023/11/23 16:18:44;;;;;;;;;;;;;;;;;;5050816;28;19929;-71
2023/11/23 16:21:10;;;;;;;;;;;;;;;;;;5053333;28;19920;-72
2023/11/23 16:23:35;;;;;;;;;;;;;;;;;;5052802;28;19974;-72
2023/11/23 16:26:05;;;;;;;;;;;;;;;;;;5054376;28;19991;-72
2023/11/23 16:28:31;;;;;;;;;;;;;;;;;;5049691;28;19928;-72
2023/11/23 16:30:57;;;;;;;;;;;;;;;;;;5055270;28;19920;-71
2023/11/23 16:33:23;;;;;;;;;;;;;;;;;;5054885;28;19921;-72
2023/11/23 16:35:54;;;;;;;;;;;;;;;;;;5064574;28;20016;-71
2023/11/23 16:38:21;;;;;;;;;;;;;;;;;;5053569;28;19920;-72